Arlington, Washington
Current Conditions -  °F | °C
As of 2:15 PM on Thursday 23 Oct 2014 (Local Time) from KAWO Reporting Station
Overcast Overcast  
Wind Chill: 14°   Ceiling: 3800
Heat Index: 14°   Visibility: 10mi
Dew Point:   Wind: 14mph
Humidity: 67%   Direction: 200°SSW
Pressure: 29.82"   Gusts: 18mph
Location:  48.2°N, 122.13°W
Report Text: KAWO 232115Z AUTO 20012G16KT 10SM SCT030 BKN038 OVC065 14/08 A2982 RMK AO1
Loading
Personal Weather Stations






























Interactive Weather Map
Tropical Storm Tracking
New forecast layout! Learn more

10-Day Weather Forecast

Advertisements
Track Severe Weather on mobile